createdAt,value
2019-02-14T00:00:14.320Z,86.34
2019-02-14T00:01:14.344Z,86.30
2019-02-14T00:02:14.300Z,86.41
2019-02-14T00:03:14.327Z,85.47
2019-02-14T00:04:14.300Z,85.05
2019-02-14T00:05:16.569Z,85.68
2019-02-14T00:06:14.256Z,85.78
2019-02-14T00:07:14.237Z,85.68
2019-02-14T00:08:14.291Z,85.78
2019-02-14T00:09:14.250Z,85.36
2019-02-14T00:10:14.215Z,85.68
2019-02-14T00:11:14.209Z,85.47
2019-02-14T00:12:14.190Z,85.78
2019-02-14T00:13:14.179Z,85.78
2019-02-14T00:14:14.200Z,85.78
2019-02-14T00:15:14.218Z,85.93
2019-02-14T00:16:14.144Z,85.47
2019-02-14T00:17:14.143Z,84.74
2019-02-14T00:18:14.135Z,85.10
2019-02-14T00:19:14.110Z,85.51
2019-02-14T00:20:14.103Z,85.16
2019-02-14T00:21:14.288Z,85.36
2019-02-14T00:22:14.091Z,85.78
2019-02-14T00:23:14.074Z,85.68
2019-02-14T00:24:14.067Z,84.74
2019-02-14T00:25:14.049Z,84.64
2019-02-14T00:26:14.035Z,84.12
2019-02-14T00:27:14.048Z,84.12
2019-02-14T00:28:14.020Z,84.22
2019-02-14T00:29:14.006Z,85.16
2019-02-14T00:30:13.994Z,85.68
2019-02-14T00:31:13.978Z,85.93
2019-02-14T00:32:13.995Z,85.61
2019-02-14T00:33:13.966Z,85.30
2019-02-14T00:34:13.955Z,85.72
2019-02-14T00:35:13.938Z,84.78
2019-02-14T00:36:13.932Z,84.41
2019-02-14T00:37:14.134Z,84.51
2019-02-14T00:38:13.939Z,84.37
2019-02-14T00:39:13.904Z,84.47
2019-02-14T00:40:13.919Z,85.03
2019-02-14T00:41:13.877Z,84.72
2019-02-14T00:42:13.886Z,84.82
2019-02-14T00:43:13.859Z,85.13
2019-02-14T00:44:13.848Z,85.55
2019-02-14T00:45:13.843Z,85.59
2019-02-14T00:46:13.836Z,85.80
2019-02-14T00:47:13.811Z,86.00
2019-02-14T00:48:13.884Z,85.80
2019-02-14T00:49:13.787Z,85.69
2019-02-14T00:50:13.779Z,86.11
2019-02-14T00:51:13.767Z,86.57
2019-02-14T00:52:20.808Z,86.77
2019-02-14T00:53:13.745Z,86.98
2019-02-14T00:54:13.760Z,87.19
2019-02-14T00:55:13.732Z,87.40
2019-02-14T00:56:13.714Z,87.19
2019-02-14T00:57:13.705Z,87.29
2019-02-14T00:58:13.712Z,87.23
2019-02-14T00:59:13.675Z,87.65
2019-02-14T01:00:13.703Z,87.12
2019-02-14T01:01:13.730Z,87.43
2019-02-14T01:02:13.647Z,87.33
2019-02-14T01:03:13.645Z,87.23
2019-02-14T01:04:13.659Z,87.12
2019-02-14T01:05:13.649Z,87.23
2019-02-14T01:06:13.624Z,87.75
2019-02-14T01:07:13.610Z,87.65
2019-02-14T01:08:13.618Z,87.85
2019-02-14T01:09:13.580Z,87.75
2019-02-14T01:10:13.576Z,87.65
2019-02-14T01:11:13.547Z,87.65
2019-02-14T01:12:13.548Z,87.85
2019-02-14T01:13:13.523Z,88.17
2019-02-14T01:14:13.546Z,88.58
2019-02-14T01:15:13.545Z,88.37
2019-02-14T01:16:13.515Z,88.20
2019-02-14T01:17:13.582Z,89.04
2019-02-14T01:18:13.473Z,88.83
2019-02-14T01:19:15.404Z,88.83
2019-02-14T01:20:13.581Z,88.83
2019-02-14T01:21:13.445Z,89.14
2019-02-14T01:22:13.451Z,89.14
2019-02-14T01:23:13.421Z,89.45
2019-02-14T01:24:13.406Z,88.52
2019-02-14T01:25:13.392Z,88.62
2019-02-14T01:26:13.379Z,87.99
2019-02-14T01:27:13.372Z,88.31
2019-02-14T01:28:13.396Z,88.20
2019-02-14T01:29:13.359Z,87.99
2019-02-14T01:30:13.345Z,88.20
2019-02-14T01:31:13.356Z,87.99
2019-02-14T01:32:13.323Z,88.06
2019-02-14T01:33:13.344Z,88.31
2019-02-14T01:34:13.304Z,88.10
2019-02-14T01:35:13.299Z,88.31
2019-02-14T01:36:13.271Z,88.20
2019-02-14T01:37:13.273Z,89.04
2019-02-14T01:38:13.291Z,89.04
2019-02-14T01:39:13.254Z,88.62
2019-02-14T01:40:13.230Z,88.20
2019-02-14T01:41:13.233Z,88.10
2019-02-14T01:42:13.237Z,87.99
2019-02-14T01:43:13.216Z,88.31
2019-02-14T01:44:13.362Z,88.20
2019-02-14T01:45:13.189Z,88.35
2019-02-14T01:46:13.173Z,88.35
2019-02-14T01:47:13.178Z,88.04
2019-02-14T01:48:13.140Z,88.04
2019-02-14T01:49:13.132Z,88.35
2019-02-14T01:50:13.161Z,88.24
2019-02-14T01:51:13.114Z,88.87
2019-02-14T01:52:13.106Z,88.76
2019-02-14T01:53:13.133Z,88.76
2019-02-14T01:54:13.080Z,88.87
2019-02-14T01:55:13.074Z,88.45
2019-02-14T01:56:13.088Z,88.45
2019-02-14T01:57:13.048Z,88.35
2019-02-14T01:58:13.034Z,88.56
2019-02-14T01:59:13.025Z,88.66
2019-02-14T02:00:13.014Z,88.35
2019-02-14T02:01:13.001Z,89.08
2019-02-14T02:02:13.019Z,88.24
2019-02-14T02:03:13.168Z,88.04
2019-02-14T02:04:12.973Z,88.35
2019-02-14T02:05:12.960Z,88.24
2019-02-14T02:06:12.952Z,88.35
2019-02-14T02:07:12.959Z,88.24
2019-02-14T02:08:12.928Z,88.24
2019-02-14T02:09:12.963Z,88.35
2019-02-14T02:10:12.907Z,88.35
2019-02-14T02:11:12.893Z,88.35
2019-02-14T02:12:12.888Z,87.93
2019-02-14T02:13:12.871Z,87.73
2019-02-14T02:14:12.884Z,87.83
2019-02-14T02:15:12.854Z,87.83
2019-02-14T02:16:12.842Z,87.52
2019-02-14T02:17:12.828Z,86.99
2019-02-14T02:18:12.968Z,86.99
2019-02-14T02:19:13.529Z,86.79
2019-02-14T02:20:12.832Z,87.20
2019-02-14T02:21:12.786Z,87.10
2019-02-14T02:22:12.777Z,87.20
2019-02-14T02:23:12.765Z,87.76
2019-02-14T02:24:12.751Z,87.55
2019-02-14T02:25:12.775Z,87.76
2019-02-14T02:26:12.727Z,87.76
2019-02-14T02:27:12.829Z,87.35
2019-02-14T02:28:12.710Z,87.20
2019-02-14T02:29:12.729Z,87.24
2019-02-14T02:30:12.750Z,87.24
2019-02-14T02:31:12.701Z,87.20
2019-02-14T02:32:12.667Z,87.66
2019-02-14T02:33:12.655Z,87.10
2019-02-14T02:34:12.651Z,87.45
2019-02-14T02:35:12.631Z,87.45
2019-02-14T02:36:12.652Z,87.35
2019-02-14T02:37:12.612Z,88.39
2019-02-14T02:38:12.606Z,87.76
2019-02-14T02:39:12.594Z,87.45
2019-02-14T02:40:12.590Z,87.35
2019-02-14T02:41:12.576Z,87.76
2019-02-14T02:42:12.584Z,86.83
2019-02-14T02:43:12.549Z,86.93
2019-02-14T02:44:12.537Z,87.45
2019-02-14T02:45:12.658Z,87.76
2019-02-14T02:46:12.694Z,86.79
2019-02-14T02:47:12.503Z,87.20
2019-02-14T02:48:12.525Z,86.68
2019-02-14T02:49:12.587Z,87.14
2019-02-14T02:50:12.500Z,87.20
2019-02-14T02:51:12.482Z,86.99
2019-02-14T02:52:12.448Z,86.89
2019-02-14T02:53:12.488Z,86.72
2019-02-14T02:54:12.434Z,87.24
2019-02-14T02:55:12.420Z,87.14
2019-02-14T02:56:12.405Z,87.35
2019-02-14T02:57:12.391Z,87.35
2019-02-14T02:58:12.388Z,87.04
2019-02-14T02:59:14.181Z,87.45
2019-02-14T03:00:12.370Z,87.35
2019-02-14T03:01:12.353Z,87.35
2019-02-14T03:02:12.343Z,87.24
2019-02-14T03:03:12.330Z,87.76
2019-02-14T03:04:12.368Z,87.45
2019-02-14T03:05:12.313Z,87.49
2019-02-14T03:06:12.327Z,87.39
2019-02-14T03:07:12.283Z,87.49
2019-02-14T03:08:12.285Z,86.97
2019-02-14T03:09:12.266Z,87.28
2019-02-14T03:10:12.249Z,86.76
2019-02-14T03:11:12.265Z,87.28
2019-02-14T03:12:12.273Z,87.32
2019-02-14T03:13:12.234Z,88.06
2019-02-14T03:14:12.223Z,88.06
2019-02-14T03:15:12.202Z,87.95
2019-02-14T03:16:12.187Z,88.47
2019-02-14T03:17:12.205Z,88.16
2019-02-14T03:18:12.174Z,88.47
2019-02-14T03:19:12.160Z,88.99
2019-02-14T03:20:12.141Z,88.51
2019-02-14T03:21:12.138Z,88.93
2019-02-14T03:22:12.121Z,88.93
2019-02-14T03:23:12.139Z,88.68
2019-02-14T03:24:12.106Z,88.62
2019-02-14T03:25:12.099Z,88.51
2019-02-14T03:26:12.079Z,89.45
2019-02-14T03:27:12.069Z,89.56
2019-02-14T03:28:12.084Z,89.34
2019-02-14T03:29:12.122Z,89.24
2019-02-14T03:30:12.052Z,89.45
2019-02-14T03:31:12.029Z,89.56
2019-02-14T03:32:12.047Z,89.45
2019-02-14T03:33:12.028Z,89.49
2019-02-14T03:34:11.994Z,89.70
2019-02-14T03:35:11.988Z,89.70
2019-02-14T03:36:18.834Z,89.70
2019-02-14T03:37:13.097Z,89.39
2019-02-14T03:38:11.976Z,89.49
2019-02-14T03:39:11.945Z,89.91
2019-02-14T03:40:11.962Z,89.49
2019-02-14T03:41:11.918Z,90.43
2019-02-14T03:42:11.909Z,90.64
2019-02-14T03:43:11.894Z,90.64
2019-02-14T03:44:11.886Z,90.22
2019-02-14T03:45:11.880Z,90.43
2019-02-14T03:46:11.903Z,90.33
2019-02-14T03:47:11.848Z,90.58
2019-02-14T03:48:11.850Z,90.58
2019-02-14T03:49:11.830Z,90.26
2019-02-14T03:50:11.964Z,90.85
2019-02-14T03:51:11.855Z,90.47
2019-02-14T03:52:11.812Z,90.85
2019-02-14T03:53:11.835Z,90.43
2019-02-14T03:54:11.778Z,90.47
2019-02-14T03:55:11.769Z,90.53
2019-02-14T03:56:11.805Z,90.53
2019-02-14T03:57:11.777Z,90.85
2019-02-14T03:58:11.738Z,90.85
2019-02-14T03:59:11.722Z,90.78
2019-02-14T04:00:11.715Z,90.64
2019-02-14T04:01:11.698Z,90.85
2019-02-14T04:02:11.702Z,91.00
2019-02-14T04:03:11.707Z,90.78
2019-02-14T04:04:11.676Z,91.00
2019-02-14T04:05:11.657Z,90.89
2019-02-14T04:06:11.645Z,90.43
2019-02-14T04:07:11.641Z,90.89
2019-02-14T04:08:11.657Z,90.89
2019-02-14T04:09:11.714Z,91.00
2019-02-14T04:10:11.625Z,91.00
2019-02-14T04:11:11.597Z,90.89
2019-02-14T04:12:11.589Z,90.58
2019-02-14T04:13:11.612Z,90.89
2019-02-14T04:14:11.561Z,90.68
2019-02-14T04:15:11.556Z,90.93
2019-02-14T04:16:11.535Z,91.00
2019-02-14T04:17:11.547Z,90.89
2019-02-14T04:18:11.517Z,90.47
2019-02-14T04:19:11.529Z,90.68
2019-02-14T04:20:11.509Z,91.20
2019-02-14T04:21:11.488Z,91.10
2019-02-14T04:22:11.692Z,90.78
2019-02-14T04:23:11.459Z,91.00
2019-02-14T04:24:11.477Z,90.68
2019-02-14T04:25:11.499Z,90.89
2019-02-14T04:26:11.430Z,90.89
2019-02-14T04:27:11.425Z,90.89
2019-02-14T04:28:11.414Z,90.68
2019-02-14T04:29:11.395Z,90.58
2019-02-14T04:30:11.421Z,90.58
2019-02-14T04:31:11.381Z,91.20
2019-02-14T04:32:11.365Z,90.41
2019-02-14T04:33:11.361Z,90.52
2019-02-14T04:34:11.360Z,90.72
2019-02-14T04:35:11.350Z,90.83
2019-02-14T04:36:11.345Z,90.72
2019-02-14T04:37:11.314Z,91.03
2019-02-14T04:38:11.308Z,90.62
2019-02-14T04:39:11.298Z,90.89
2019-02-14T04:40:11.297Z,91.14
2019-02-14T04:41:11.292Z,90.72
2019-02-14T04:42:11.256Z,90.72
2019-02-14T04:43:11.247Z,90.72
2019-02-14T04:44:11.249Z,90.52
2019-02-14T04:45:11.245Z,90.52
2019-02-14T04:46:11.354Z,90.72
2019-02-14T04:47:11.203Z,90.52
2019-02-14T04:48:11.225Z,90.52
2019-02-14T04:49:11.224Z,90.72
2019-02-14T04:50:11.187Z,90.83
2019-02-14T04:51:11.167Z,91.03
2019-02-14T04:52:11.192Z,90.83
2019-02-14T04:53:11.150Z,90.72
2019-02-14T04:54:11.130Z,90.72
2019-02-14T04:55:11.119Z,90.72
2019-02-14T04:56:11.111Z,90.93
2019-02-14T04:57:11.100Z,90.72
2019-02-14T04:58:11.113Z,90.62
2019-02-14T04:59:11.090Z,90.52
2019-02-14T05:00:11.066Z,90.52
2019-02-14T05:01:11.055Z,90.83
2019-02-14T05:02:11.090Z,91.03
2019-02-14T05:03:11.065Z,91.39
2019-02-14T05:04:11.018Z,90.31
2019-02-14T05:05:11.023Z,90.20
2019-02-14T05:06:11.004Z,90.34
2019-02-14T05:07:10.988Z,91.28
2019-02-14T05:08:10.981Z,90.45
2019-02-14T05:09:11.002Z,91.39
2019-02-14T05:10:10.982Z,90.03
2019-02-14T05:11:10.946Z,90.34
2019-02-14T05:12:10.938Z,90.45
2019-02-14T05:13:10.920Z,90.39
2019-02-14T05:14:10.908Z,91.02
2019-02-14T05:15:10.934Z,90.59
2019-02-14T05:16:10.891Z,90.91
2019-02-14T05:17:10.883Z,90.87
2019-02-14T05:18:10.874Z,91.02
2019-02-14T05:19:10.866Z,91.02
2019-02-14T05:20:10.898Z,91.12
2019-02-14T05:21:10.864Z,91.12
2019-02-14T05:22:10.829Z,91.28
2019-02-14T05:23:10.837Z,90.97
2019-02-14T05:24:10.806Z,91.08
2019-02-14T05:25:10.818Z,90.91
2019-02-14T05:26:11.470Z,91.02
2019-02-14T05:27:10.770Z,91.18
2019-02-14T05:28:10.786Z,91.12
2019-02-14T05:29:10.765Z,91.28
2019-02-14T05:30:10.740Z,91.33
2019-02-14T05:31:10.728Z,91.33
2019-02-14T05:32:10.748Z,91.60
2019-02-14T05:33:10.714Z,92.38
2019-02-14T05:34:10.697Z,92.16
2019-02-14T05:35:10.687Z,92.16
2019-02-14T05:36:10.679Z,92.27
2019-02-14T05:37:10.683Z,92.16
2019-02-14T05:38:10.651Z,92.16
2019-02-14T05:39:10.638Z,92.16
2019-02-14T05:40:10.658Z,92.27
2019-02-14T05:41:10.619Z,92.16
2019-02-14T05:42:10.621Z,92.16
2019-02-14T05:43:10.618Z,92.27
2019-02-14T05:44:10.626Z,92.06
2019-02-14T05:45:10.678Z,91.96
2019-02-14T05:46:10.609Z,92.44
2019-02-14T05:47:10.551Z,92.65
2019-02-14T05:48:10.608Z,92.96
2019-02-14T05:49:10.530Z,92.75
2019-02-14T05:50:10.527Z,93.33
2019-02-14T05:51:10.522Z,93.96
2019-02-14T05:52:10.510Z,93.86
2019-02-14T05:53:10.489Z,92.82
2019-02-14T05:54:10.515Z,93.23
2019-02-14T05:55:10.477Z,92.60
2019-02-14T05:56:10.492Z,92.44
2019-02-14T05:57:10.473Z,92.23
2019-02-14T05:58:10.434Z,92.50
2019-02-14T05:59:10.423Z,92.13
2019-02-14T06:00:10.423Z,91.77
2019-02-14T06:01:10.489Z,92.02
2019-02-14T06:02:10.393Z,91.28
2019-02-14T06:03:10.377Z,91.28
2019-02-14T06:04:10.414Z,91.08
2019-02-14T06:05:10.355Z,91.33
2019-02-14T06:06:10.353Z,90.77
2019-02-14T06:07:10.356Z,91.02
2019-02-14T06:08:10.327Z,91.02
2019-02-14T06:09:10.390Z,91.02
2019-02-14T06:10:10.305Z,90.81
2019-02-14T06:11:10.301Z,90.81
2019-02-14T06:12:10.332Z,91.02
2019-02-14T06:13:10.274Z,91.02
2019-02-14T06:14:10.267Z,91.02
2019-02-14T06:15:10.277Z,90.74
2019-02-14T06:16:10.252Z,91.06
2019-02-14T06:17:10.255Z,91.43
2019-02-14T06:18:10.227Z,91.16
2019-02-14T06:19:10.219Z,91.16
2019-02-14T06:20:10.195Z,91.58
2019-02-14T06:21:10.187Z,90.95
2019-02-14T06:22:10.193Z,91.06
2019-02-14T06:23:10.176Z,91.37
2019-02-14T06:24:10.168Z,91.72
2019-02-14T06:25:10.272Z,92.04
2019-02-14T06:26:10.135Z,92.14
2019-02-14T06:27:10.125Z,92.00
2019-02-14T06:28:10.210Z,92.73
2019-02-14T06:29:10.102Z,92.04
2019-02-14T06:30:10.093Z,92.31
2019-02-14T06:31:10.082Z,92.46
2019-02-14T06:32:10.068Z,92.98
2019-02-14T06:33:10.072Z,93.46
2019-02-14T06:34:10.045Z,92.31
2019-02-14T06:35:10.042Z,92.67
2019-02-14T06:36:10.023Z,92.14
2019-02-14T06:37:10.112Z,92.67
2019-02-14T06:38:10.022Z,92.98
2019-02-14T06:39:09.993Z,92.14
2019-02-14T06:40:09.983Z,93.19
2019-02-14T06:41:09.974Z,93.08
2019-02-14T06:42:09.965Z,93.30
2019-02-14T06:43:09.946Z,93.15
2019-02-14T06:44:10.034Z,92.35
2019-02-14T06:45:09.953Z,93.08
2019-02-14T06:46:09.917Z,93.08
2019-02-14T06:47:09.906Z,92.67
2019-02-14T06:48:09.893Z,92.67
2019-02-14T06:49:09.886Z,92.63
2019-02-14T06:50:09.906Z,92.77
2019-02-14T06:51:09.884Z,92.31
2019-02-14T06:52:09.855Z,92.04
2019-02-14T06:53:16.909Z,92.14
2019-02-14T06:54:09.878Z,91.94
2019-02-14T06:55:09.816Z,92.35
2019-02-14T06:56:09.807Z,92.35
2019-02-14T06:57:09.882Z,92.04
2019-02-14T06:58:09.787Z,92.14
2019-02-14T06:59:09.783Z,92.46
2019-02-14T07:00:09.768Z,92.25
2019-02-14T07:01:09.777Z,92.67
2019-02-14T07:02:09.794Z,93.19
2019-02-14T07:03:09.736Z,92.35
2019-02-14T07:04:09.720Z,92.98
2019-02-14T07:05:10.514Z,92.98
2019-02-14T07:06:09.706Z,93.08
2019-02-14T07:07:17.878Z,92.98
2019-02-14T07:08:10.707Z,93.30
2019-02-14T07:09:09.681Z,92.57
2019-02-14T07:10:09.655Z,93.30
2019-02-14T07:11:09.651Z,93.19
2019-02-14T07:12:09.642Z,93.08
2019-02-14T07:13:09.629Z,93.19
2019-02-14T07:14:09.645Z,93.08
2019-02-14T07:15:09.614Z,92.46
2019-02-14T07:16:09.709Z,93.08
2019-02-14T07:17:09.585Z,92.88
2019-02-14T07:18:09.570Z,92.14
2019-02-14T07:19:09.595Z,92.00
2019-02-14T07:20:09.562Z,92.04
2019-02-14T07:21:09.669Z,92.25
2019-02-14T07:22:09.530Z,92.35
2019-02-14T07:23:09.520Z,92.57
2019-02-14T07:24:09.513Z,92.67
2019-02-14T07:25:09.532Z,92.94
2019-02-14T07:26:09.522Z,92.46
2019-02-14T07:27:09.477Z,92.35
2019-02-14T07:28:09.471Z,92.63
2019-02-14T07:29:09.508Z,93.15
2019-02-14T07:30:09.446Z,92.83
2019-02-14T07:31:09.472Z,92.73
2019-02-14T07:32:09.421Z,93.15
2019-02-14T07:33:09.416Z,93.04
2019-02-14T07:34:09.406Z,93.04
2019-02-14T07:35:09.396Z,92.90
2019-02-14T07:36:09.403Z,92.63
2019-02-14T07:37:09.372Z,92.58
2019-02-14T07:38:09.371Z,92.90
2019-02-14T07:39:11.055Z,93.11
2019-02-14T07:40:09.355Z,92.06
2019-02-14T07:41:09.409Z,92.48
2019-02-14T07:42:09.313Z,92.16
2019-02-14T07:43:09.311Z,91.96
2019-02-14T07:44:09.304Z,92.48
2019-02-14T07:45:09.346Z,92.38
2019-02-14T07:46:09.281Z,92.38
2019-02-14T07:47:09.310Z,92.48
2019-02-14T07:48:09.250Z,92.06
2019-02-14T07:49:09.255Z,91.81
2019-02-14T07:50:09.233Z,92.54
2019-02-14T07:51:09.267Z,92.79
2019-02-14T07:52:09.228Z,92.02
2019-02-14T07:53:09.190Z,92.44
2019-02-14T07:54:09.185Z,92.02
2019-02-14T07:55:09.336Z,92.33
2019-02-14T07:56:09.162Z,92.44
2019-02-14T07:57:09.146Z,91.91
2019-02-14T07:58:09.141Z,92.23
2019-02-14T07:59:09.156Z,91.91
2019-02-14T08:00:09.121Z,92.33
2019-02-14T08:01:09.131Z,91.98
2019-02-14T08:02:09.102Z,92.19
2019-02-14T08:03:09.100Z,91.91
2019-02-14T08:04:09.128Z,91.87
2019-02-14T08:05:09.108Z,91.87
2019-02-14T08:06:09.057Z,91.87
2019-02-14T08:07:09.041Z,92.19
2019-02-14T08:08:09.033Z,92.50
2019-02-14T08:09:09.021Z,92.50
2019-02-14T08:10:09.015Z,92.29
2019-02-14T08:11:09.029Z,93.13
2019-02-14T08:12:08.990Z,93.08
2019-02-14T08:13:08.977Z,92.56
2019-02-14T08:14:08.968Z,92.66
2019-02-14T08:15:08.956Z,92.46
2019-02-14T08:16:08.945Z,92.73
2019-02-14T08:17:09.517Z,93.15
2019-02-14T08:18:08.971Z,92.37
2019-02-14T08:19:08.949Z,91.75
2019-02-14T08:20:08.930Z,91.91
2019-02-14T08:21:08.989Z,92.02
2019-02-14T08:22:09.018Z,91.60
2019-02-14T08:23:08.927Z,90.72
2019-02-14T08:24:08.882Z,90.62
2019-02-14T08:25:08.894Z,90.58
2019-02-14T08:26:10.758Z,89.75
2019-02-14T08:27:08.894Z,88.45
2019-02-14T08:28:08.851Z,87.27
2019-02-14T08:29:08.813Z,87.68
2019-02-14T08:30:08.790Z,86.54
2019-02-14T08:31:08.783Z,85.98
2019-02-14T08:32:08.811Z,85.77
2019-02-14T08:33:08.763Z,85.31
2019-02-14T08:34:08.749Z,84.48
2019-02-14T08:35:08.754Z,83.13
2019-02-14T08:36:08.738Z,83.86
2019-02-14T08:37:08.740Z,82.99
2019-02-14T08:38:08.740Z,83.78
2019-02-14T08:39:08.693Z,83.92
2019-02-14T08:40:08.702Z,83.47
2019-02-14T08:41:08.672Z,82.18
2019-02-14T08:42:08.663Z,82.39
2019-02-14T08:43:08.673Z,81.35
2019-02-14T08:44:08.819Z,80.94
2019-02-14T08:45:08.645Z,81.46
2019-02-14T08:46:08.645Z,80.69
2019-02-14T08:47:08.672Z,81.01
2019-02-14T08:48:08.640Z,80.38
2019-02-14T08:49:08.601Z,80.28
2019-02-14T08:50:08.599Z,80.35
2019-02-14T08:51:08.566Z,79.20
2019-02-14T08:52:08.552Z,78.27
2019-02-14T08:53:08.539Z,79.83
2019-02-14T08:54:08.579Z,78.55
2019-02-14T08:55:10.046Z,77.82
2019-02-14T08:56:08.517Z,78.75
2019-02-14T08:57:08.515Z,80.06
2019-02-14T08:58:08.519Z,77.99
2019-02-14T08:59:08.477Z,78.09
2019-02-14T09:00:09.034Z,76.95
2019-02-14T09:01:08.456Z,76.50
2019-02-14T09:02:08.444Z,73.91
2019-02-14T09:03:08.439Z,75.78
2019-02-14T09:04:08.498Z,75.36
2019-02-14T09:05:08.436Z,75.05
2019-02-14T09:06:08.403Z,76.15
2019-02-14T09:07:08.457Z,76.05
2019-02-14T09:08:08.385Z,75.32
2019-02-14T09:09:08.383Z,73.74
2019-02-14T09:10:08.356Z,73.15
2019-02-14T09:11:08.369Z,73.63
2019-02-14T09:12:08.336Z,75.09
2019-02-14T09:13:16.803Z,76.32
2019-02-14T09:14:09.312Z,73.74
2019-02-14T09:15:08.324Z,72.08
2019-02-14T09:16:08.453Z,73.63
2019-02-14T09:17:08.280Z,73.81
2019-02-14T09:18:08.270Z,73.74
2019-02-14T09:19:08.273Z,73.19
2019-02-14T09:20:08.253Z,74.02
2019-02-14T09:21:08.275Z,73.08
2019-02-14T09:22:08.227Z,72.25
2019-02-14T09:23:08.247Z,73.71
2019-02-14T09:24:08.312Z,71.94
2019-02-14T09:25:08.197Z,71.39
2019-02-14T09:26:08.197Z,71.50
2019-02-14T09:27:08.180Z,72.85
2019-02-14T09:28:08.177Z,70.05
2019-02-14T09:29:08.174Z,69.81
2019-02-14T09:30:08.156Z,69.81
2019-02-14T09:31:08.130Z,72.19
2019-02-14T09:32:08.117Z,71.67
2019-02-14T09:33:08.137Z,71.02
2019-02-14T09:34:08.117Z,72.16
2019-02-14T09:35:08.088Z,71.43
2019-02-14T09:36:08.081Z,68.12
2019-02-14T09:37:08.069Z,67.09
2019-02-14T09:38:08.083Z,68.12
2019-02-14T09:39:08.068Z,71.30
2019-02-14T09:40:08.048Z,70.09
2019-02-14T09:41:08.025Z,70.71
2019-02-14T09:42:08.009Z,69.54
2019-02-14T09:43:08.145Z,70.57
2019-02-14T09:44:07.998Z,69.85
2019-02-14T09:45:08.013Z,69.61
2019-02-14T09:46:07.977Z,70.23
2019-02-14T09:47:07.960Z,69.51
2019-02-14T09:48:07.947Z,69.51
2019-02-14T09:49:07.927Z,69.40
2019-02-14T09:50:07.929Z,67.03
2019-02-14T09:51:07.933Z,67.44
2019-02-14T09:52:07.898Z,67.34
2019-02-14T09:53:07.889Z,66.69
2019-02-14T09:54:07.879Z,64.31
2019-02-14T09:55:07.867Z,64.42
2019-02-14T09:56:07.880Z,66.07
2019-02-14T09:57:07.844Z,64.00
2019-02-14T09:58:07.844Z,64.21
2019-02-14T09:59:08.560Z,65.42
2019-02-14T10:00:07.816Z,65.94
2019-02-14T10:01:07.839Z,64.49
2019-02-14T10:02:07.806Z,65.86
2019-02-14T10:03:07.784Z,66.35
2019-02-14T10:04:07.768Z,66.76
2019-02-14T10:05:07.762Z,67.90
2019-02-14T10:06:07.779Z,67.58
2019-02-14T10:07:07.966Z,69.72
2019-02-14T10:08:12.745Z,67.17
2019-02-14T10:09:08.731Z,67.55
2019-02-14T10:10:07.776Z,67.35
2019-02-14T10:11:07.695Z,67.24
2019-02-14T10:12:07.717Z,64.56
2019-02-14T10:13:07.719Z,65.39
2019-02-14T10:14:07.664Z,65.18
2019-02-14T10:15:07.647Z,67.52
2019-02-14T10:16:07.643Z,66.21
2019-02-14T10:17:07.626Z,69.27
2019-02-14T10:18:07.616Z,69.27
2019-02-14T10:19:07.629Z,69.59
2019-02-14T10:20:07.593Z,69.69
2019-02-14T10:21:07.587Z,69.48
2019-02-14T10:22:07.579Z,67.73
2019-02-14T10:23:07.588Z,66.39
2019-02-14T10:24:07.553Z,67.60
2019-02-14T10:25:07.537Z,65.43
2019-02-14T10:26:07.522Z,64.32
2019-02-14T10:27:07.572Z,64.50
2019-02-14T10:28:07.508Z,62.96
2019-02-14T10:29:08.039Z,64.19
2019-02-14T10:30:07.475Z,64.61
2019-02-14T10:31:07.472Z,63.78
2019-02-14T10:32:07.464Z,64.19
2019-02-14T10:33:07.477Z,65.40
2019-02-14T10:34:07.433Z,64.06
2019-02-14T10:35:07.436Z,64.68
2019-02-14T10:36:07.415Z,64.99
2019-02-14T10:37:07.419Z,66.33
2019-02-14T10:38:07.388Z,64.06
2019-02-14T10:39:07.404Z,62.52
2019-02-14T10:40:07.400Z,63.21
2019-02-14T10:41:07.363Z,65.26
2019-02-14T10:42:07.356Z,60.97
2019-02-14T10:43:07.331Z,62.70
2019-02-14T10:44:07.344Z,59.91
2019-02-14T10:45:07.332Z,62.49
2019-02-14T10:46:07.305Z,63.52
2019-02-14T10:47:07.297Z,62.49
2019-02-14T10:48:07.283Z,61.77
2019-02-14T10:49:07.272Z,64.03
2019-02-14T10:50:07.290Z,63.62
2019-02-14T10:51:07.265Z,65.47
2019-02-14T10:52:07.237Z,63.90
2019-02-14T10:53:07.301Z,61.63
2019-02-14T10:54:07.210Z,63.79
2019-02-14T10:55:07.210Z,62.56
2019-02-14T10:56:07.319Z,65.13
2019-02-14T10:57:07.178Z,61.74
2019-02-14T10:58:07.170Z,59.99
2019-02-14T10:59:07.161Z,63.59
2019-02-14T11:00:07.157Z,64.79
2019-02-14T11:01:07.153Z,58.83
2019-02-14T11:02:07.152Z,59.24
2019-02-14T11:03:07.113Z,61.71
2019-02-14T11:04:07.108Z,62.19
2019-02-14T11:05:07.104Z,63.74
2019-02-14T11:06:07.103Z,63.94
2019-02-14T11:07:07.096Z,65.38
2019-02-14T11:08:07.081Z,60.14
2019-02-14T11:09:07.051Z,63.64
2019-02-14T11:10:07.035Z,61.07
2019-02-14T11:11:07.041Z,60.03
2019-02-14T11:12:08.050Z,60.35
2019-02-14T11:13:07.030Z,61.44
2019-02-14T11:14:06.999Z,59.50
2019-02-14T11:15:09.033Z,59.70
2019-02-14T11:16:06.976Z,57.54
2019-02-14T11:17:06.971Z,60.93
2019-02-14T11:18:06.950Z,61.55
2019-02-14T11:19:06.965Z,60.83
2019-02-14T11:20:06.926Z,58.85
2019-02-14T11:21:06.924Z,58.98
2019-02-14T11:22:06.907Z,58.23
2019-02-14T11:23:06.981Z,58.34
2019-02-14T11:24:06.909Z,59.98
2019-02-14T11:25:06.878Z,57.62
2019-02-14T11:26:08.638Z,57.08
2019-02-14T11:27:06.868Z,60.16
2019-02-14T11:28:06.845Z,59.85
2019-02-14T11:29:06.833Z,60.26
2019-02-14T11:30:06.851Z,61.60
2019-02-14T11:31:06.815Z,57.87
2019-02-14T11:32:06.808Z,57.36
2019-02-14T11:33:06.786Z,57.46
2019-02-14T11:34:06.813Z,58.07
2019-02-14T11:35:06.765Z,57.46
2019-02-14T11:36:06.750Z,57.36
2019-02-14T11:37:06.739Z,57.87
2019-02-14T11:38:06.737Z,57.77
2019-02-14T11:39:06.720Z,60.10
2019-02-14T11:40:06.746Z,55.90
2019-02-14T11:41:06.698Z,61.13
2019-02-14T11:42:06.701Z,57.64
2019-02-14T11:43:06.675Z,56.00
2019-02-14T11:44:06.672Z,56.30
2019-02-14T11:45:06.713Z,58.15
2019-02-14T11:46:06.645Z,54.74
2019-02-14T11:47:07.904Z,56.41
2019-02-14T11:48:06.629Z,58.46
2019-02-14T11:49:06.612Z,55.87
2019-02-14T11:50:06.722Z,59.25
2019-02-14T11:51:06.585Z,56.28
2019-02-14T11:52:06.573Z,54.95
2019-02-14T11:53:13.981Z,54.64
2019-02-14T11:54:07.565Z,58.00
2019-02-14T11:55:06.561Z,59.84
2019-02-14T11:56:06.558Z,59.02
2019-02-14T11:57:06.525Z,58.20
2019-02-14T11:58:06.628Z,53.39
2019-02-14T11:59:06.502Z,55.13
2019-02-14T12:00:06.493Z,55.02
2019-02-14T12:01:06.485Z,54.49
2019-02-14T12:02:06.501Z,55.92
2019-02-14T12:03:06.493Z,53.16
2019-02-14T12:04:06.445Z,58.58
2019-02-14T12:05:06.428Z,59.41
2019-02-14T12:06:06.449Z,55.30
2019-02-14T12:07:06.415Z,59.92
2019-02-14T12:08:06.434Z,55.79
2019-02-14T12:09:06.399Z,55.28
2019-02-14T12:10:13.283Z,58.35
2019-02-14T12:11:07.528Z,56.61
2019-02-14T12:12:06.354Z,54.87
2019-02-14T12:13:06.380Z,55.79
2019-02-14T12:14:06.372Z,57.53
2019-02-14T12:15:06.333Z,57.92
2019-02-14T12:16:06.308Z,53.31
2019-02-14T12:17:06.334Z,54.23
2019-02-14T12:18:06.317Z,53.31
2019-02-14T12:19:06.281Z,53.21
2019-02-14T12:20:12.249Z,54.21
2019-02-14T12:21:07.254Z,52.37
2019-02-14T12:22:06.248Z,54.00
2019-02-14T12:23:06.238Z,52.98
2019-02-14T12:24:06.254Z,54.10
2019-02-14T12:25:08.425Z,52.06
2019-02-14T12:26:06.262Z,51.14
2019-02-14T12:27:06.215Z,53.59
2019-02-14T12:28:06.368Z,54.82
2019-02-14T12:29:06.163Z,54.82
2019-02-14T12:30:06.190Z,56.05
2019-02-14T12:31:06.197Z,55.54
2019-02-14T12:32:06.138Z,53.80
2019-02-14T12:33:06.118Z,52.26
2019-02-14T12:34:06.123Z,50.01
2019-02-14T12:35:06.103Z,50.01
2019-02-14T12:36:06.118Z,51.95
2019-02-14T12:37:06.082Z,54.69
2019-02-14T12:38:06.075Z,55.10
2019-02-14T12:39:09.098Z,54.18
2019-02-14T12:40:07.073Z,55.82
2019-02-14T12:41:06.064Z,54.87
2019-02-14T12:42:06.022Z,51.86
2019-02-14T12:43:06.013Z,51.84
2019-02-14T12:44:06.074Z,55.15
2019-02-14T12:45:05.990Z,52.37
2019-02-14T12:46:06.010Z,52.66
2019-02-14T12:47:05.977Z,52.22
2019-02-14T12:48:05.965Z,47.82
2019-02-14T12:49:05.990Z,48.66
2019-02-14T12:50:05.939Z,49.45
2019-02-14T12:51:05.930Z,52.00
2019-02-14T12:52:05.986Z,52.30